Time;durP1;ratioP1;P1;durP2;ratioP2;P2;SDS_P1;SDS_P2;PMS_P1;PMS_P2;Temp;Humidity;BMP_temperature;BMP_pressure;BME280_temperature;BME280_humidity;BME280_pressure;Samples;Min_cycle;Max_cycle;Signal;HPM_P1;HPM_P2
2021/11/28 00:01:30;;;;;;;91.13;37.53;;;1.80;99.90;;;;;;4443325;27;659461;-69
2021/11/28 00:04:19;;;;;;;88.37;35.93;;;1.70;99.90;;;;;;4450192;27;659750;-69
2021/11/28 00:07:10;;;;;;;86.27;34.93;;;1.70;99.90;;;;;;4447316;27;658686;-69
2021/11/28 00:10:03;;;;;;;76.70;32.63;;;1.60;99.90;;;;;;4440926;27;659847;-69
2021/11/28 00:13:01;;;;;;;80.37;31.17;;;1.70;99.90;;;;;;4423372;27;659164;-70
2021/11/28 00:15:48;;;;;;;78.77;30.40;;;1.70;99.90;;;;;;4440171;27;659121;-69
2021/11/28 00:18:36;;;;;;;64.60;27.93;;;1.70;99.90;;;;;;4446416;27;658639;-69
2021/11/28 00:21:25;;;;;;;72.70;29.00;;;1.70;99.90;;;;;;4467311;27;658932;-69
2021/11/28 00:24:13;;;;;;;63.43;25.60;;;1.70;99.90;;;;;;4452083;27;659048;-69
2021/11/28 00:27:01;;;;;;;48.90;21.90;;;1.70;99.90;;;;;;4450986;27;658709;-70
2021/11/28 00:29:49;;;;;;;50.40;22.10;;;1.70;99.90;;;;;;4464593;27;658597;-69
2021/11/28 00:32:37;;;;;;;56.40;23.77;;;1.60;99.90;;;;;;4438562;27;658649;-69
2021/11/28 00:35:25;;;;;;;63.57;25.53;;;1.60;99.90;;;;;;4465986;27;658478;-69
2021/11/28 00:38:14;;;;;;;46.57;21.20;;;1.60;99.90;;;;;;4452422;27;659301;-69
2021/11/28 00:41:02;;;;;;;47.17;21.83;;;1.60;99.90;;;;;;4447348;27;658733;-69
2021/11/28 00:43:49;;;;;;;47.10;21.93;;;1.60;99.90;;;;;;4463547;27;658941;-69
2021/11/28 00:46:37;;;;;;;54.13;22.60;;;1.60;99.90;;;;;;4446700;27;658624;-69
2021/11/28 00:49:26;;;;;;;50.40;22.42;;;1.50;99.90;;;;;;4462129;27;658717;-69
2021/11/28 00:52:13;;;;;;;56.00;23.57;;;1.50;99.90;;;;;;4448050;27;659308;-70
2021/11/28 00:55:02;;;;;;;51.07;23.37;;;1.50;99.90;;;;;;4457470;27;658583;-70
2021/11/28 00:57:50;;;;;;;50.23;21.20;;;1.50;99.90;;;;;;4472234;27;658368;-70
2021/11/28 01:00:38;;;;;;;47.83;21.13;;;1.60;99.90;;;;;;4449587;27;659144;-69
2021/11/28 01:03:26;;;;;;;47.53;21.43;;;1.60;99.90;;;;;;4452491;27;658722;-69
2021/11/28 01:06:14;;;;;;;48.63;21.70;;;1.60;99.90;;;;;;4469550;27;659824;-69
2021/11/28 01:09:01;;;;;;;44.57;20.83;;;1.60;99.90;;;;;;4456949;27;659233;-68
2021/11/28 01:11:50;;;;;;;48.07;22.17;;;1.60;99.90;;;;;;4467183;27;658803;-69
2021/11/28 01:14:38;;;;;;;47.00;20.23;;;1.60;99.90;;;;;;4450599;27;660379;-70
2021/11/28 01:17:26;;;;;;;56.67;23.20;;;1.60;99.90;;;;;;4458972;27;659444;-70
2021/11/28 01:20:14;;;;;;;42.40;20.60;;;1.50;99.90;;;;;;4473694;27;658786;-69
2021/11/28 01:23:02;;;;;;;39.57;19.50;;;1.60;99.90;;;;;;4449646;27;658420;-70
2021/11/28 01:25:49;;;;;;;50.53;20.60;;;1.60;99.90;;;;;;4471173;27;658366;-69
2021/11/28 01:28:38;;;;;;;45.73;20.17;;;1.60;99.90;;;;;;4448785;27;659601;-69
2021/11/28 01:31:26;;;;;;;41.97;19.73;;;1.70;99.90;;;;;;4448704;27;659016;-69
2021/11/28 01:34:14;;;;;;;46.30;21.13;;;1.70;99.90;;;;;;4474972;27;659019;-69
2021/11/28 01:37:03;;;;;;;42.87;19.60;;;1.60;99.90;;;;;;4450814;27;658373;-69
2021/11/28 01:39:51;;;;;;;41.93;18.80;;;1.70;99.90;;;;;;4452600;27;658757;-70
2021/11/28 01:42:40;;;;;;;45.00;19.40;;;1.70;99.90;;;;;;4466671;27;659788;-69
2021/11/28 01:45:30;;;;;;;40.47;19.47;;;1.70;99.90;;;;;;4456021;27;659446;-69
2021/11/28 01:48:18;;;;;;;42.10;20.13;;;1.80;99.90;;;;;;4417239;28;659151;-69
2021/11/28 01:51:06;;;;;;;44.50;20.33;;;1.80;99.90;;;;;;4420802;28;658212;-69
2021/11/28 01:53:54;;;;;;;40.70;18.25;;;1.80;99.90;;;;;;4431027;28;659297;-69
2021/11/28 01:56:42;;;;;;;58.35;19.55;;;1.80;99.90;;;;;;4419001;28;658861;-70
2021/11/28 01:59:30;;;;;;;45.03;19.10;;;1.80;99.90;;;;;;4440800;28;658907;-69
2021/11/28 02:02:19;;;;;;;52.87;20.43;;;1.80;99.90;;;;;;4416282;28;660061;-69
2021/11/28 02:05:07;;;;;;;46.83;20.17;;;1.80;99.90;;;;;;4419665;28;658638;-69
2021/11/28 02:07:55;;;;;;;48.93;19.67;;;1.80;99.90;;;;;;4436147;28;658344;-69
2021/11/28 02:10:43;;;;;;;61.20;20.93;;;1.80;99.90;;;;;;4415140;28;659430;-69
2021/11/28 02:13:31;;;;;;;52.80;20.83;;;1.80;99.90;;;;;;4424007;28;660133;-69
2021/11/28 02:16:18;;;;;;;60.53;21.03;;;1.70;99.90;;;;;;4441867;28;659004;-69
2021/11/28 02:19:07;;;;;;;63.47;21.93;;;1.70;99.90;;;;;;4418080;28;659122;-70
2021/11/28 02:21:57;;;;;;;55.57;20.77;;;1.70;99.90;;;;;;4432364;28;658551;-70
2021/11/28 02:24:45;;;;;;;65.70;22.00;;;1.70;99.90;;;;;;4433693;28;658941;-69
2021/11/28 02:27:32;;;;;;;109.50;21.80;;;1.80;99.90;;;;;;4405528;28;659482;-69
2021/11/28 02:30:21;;;;;;;98.03;22.40;;;1.80;99.90;;;;;;4436745;28;661259;-69
2021/11/28 02:33:08;;;;;;;115.00;21.70;;;1.80;99.90;;;;;;4442560;28;659002;-69
2021/11/28 02:35:56;;;;;;;117.30;22.27;;;1.80;99.90;;;;;;4410269;28;659656;-69
2021/11/28 02:38:45;;;;;;;80.10;22.67;;;1.80;99.90;;;;;;4435625;28;660879;-69
2021/11/28 02:41:33;;;;;;;107.57;22.33;;;1.80;99.90;;;;;;4422123;28;658927;-70
2021/11/28 02:44:21;;;;;;;66.90;21.67;;;1.80;99.90;;;;;;4408470;28;659403;-69
2021/11/28 02:47:08;;;;;;;107.30;22.37;;;1.80;99.90;;;;;;4457335;27;659642;-69
2021/11/28 02:49:56;;;;;;;115.27;24.03;;;1.80;99.90;;;;;;4450809;27;659684;-69
2021/11/28 02:52:46;;;;;;;109.05;22.15;;;1.80;99.90;;;;;;4467694;27;660989;-69
2021/11/28 02:55:37;;;;;;;84.10;21.97;;;1.80;99.90;;;;;;4442936;27;659679;-69
2021/11/28 02:58:25;;;;;;;86.83;23.47;;;1.80;99.90;;;;;;4451192;27;659756;-69
2021/11/28 03:01:14;;;;;;;104.65;25.45;;;1.80;99.90;;;;;;4454820;27;659285;-69
2021/11/28 03:04:02;;;;;;;76.10;23.37;;;1.80;99.90;;;;;;4443871;27;659714;-69
2021/11/28 03:06:49;;;;;;;98.00;25.77;;;1.80;99.90;;;;;;4469046;27;658768;-69
2021/11/28 03:09:37;;;;;;;87.20;25.60;;;1.80;99.90;;;;;;4444776;27;658695;-69
2021/11/28 03:12:26;;;;;;;101.37;26.60;;;1.80;99.90;;;;;;4467896;27;658708;-70
2021/11/28 03:15:13;;;;;;;109.23;26.77;;;1.80;99.90;;;;;;4442854;27;659982;-69
2021/11/28 03:18:02;;;;;;;99.43;27.33;;;1.80;99.90;;;;;;4428620;28;660270;-70
2021/11/28 03:20:51;;;;;;;93.40;26.17;;;1.80;99.90;;;;;;4452816;28;659140;-68
2021/11/28 03:23:39;;;;;;;160.57;27.70;;;1.90;99.90;;;;;;4434194;28;659585;-69
2021/11/28 03:26:27;;;;;;;99.50;28.60;;;1.90;99.90;;;;;;4433661;28;659267;-69
2021/11/28 03:29:18;;;;;;;112.20;27.20;;;1.90;99.90;;;;;;4445223;28;659000;-70
2021/11/28 03:32:06;;;;;;;88.47;25.40;;;1.90;99.90;;;;;;4438352;27;660079;-70
2021/11/28 03:34:54;;;;;;;98.03;26.97;;;1.90;99.90;;;;;;4474083;27;658832;-69
2021/11/28 03:37:41;;;;;;;121.80;27.00;;;1.90;99.90;;;;;;4447851;27;658497;-69
2021/11/28 03:40:29;;;;;;;116.77;26.87;;;1.90;99.90;;;;;;4477127;27;659768;-68
2021/11/28 03:43:16;;;;;;;148.17;26.40;;;2.00;99.90;;;;;;4456601;27;661360;-70
2021/11/28 03:46:05;;;;;;;96.57;26.03;;;1.90;99.90;;;;;;4476915;27;659677;-70
2021/11/28 03:48:53;;;;;;;138.77;27.13;;;2.00;99.90;;;;;;4451414;27;658995;-69
2021/11/28 03:51:41;;;;;;;113.93;27.07;;;2.00;99.90;;;;;;4443166;27;659666;-70
2021/11/28 03:54:28;;;;;;;182.30;28.20;;;2.00;99.90;;;;;;4479590;27;660314;-69
2021/11/28 03:57:16;;;;;;;211.93;30.37;;;2.00;99.90;;;;;;4456626;27;659543;-69
2021/11/28 04:00:05;;;;;;;193.00;26.83;;;2.00;99.90;;;;;;4477972;27;660640;-69
2021/11/28 04:02:54;;;;;;;377.80;32.35;;;1.90;99.90;;;;;;4450988;27;660753;-69
2021/11/28 04:05:42;;;;;;;142.43;31.80;;;1.90;99.90;;;;;;4449483;27;659815;-69
2021/11/28 04:08:29;;;;;;;258.17;30.80;;;1.90;99.90;;;;;;4473346;27;659132;-69
2021/11/28 04:11:17;;;;;;;165.87;27.83;;;1.90;99.90;;;;;;4450602;27;659946;-69
2021/11/28 04:14:05;;;;;;;164.23;27.73;;;1.90;99.90;;;;;;4470996;27;659494;-69
2021/11/28 04:16:53;;;;;;;212.07;30.33;;;1.90;99.90;;;;;;4446287;27;660115;-69
2021/11/28 04:19:42;;;;;;;167.50;30.23;;;1.90;99.90;;;;;;4458390;27;659986;-70
2021/11/28 04:22:30;;;;;;;149.43;27.63;;;1.90;99.90;;;;;;4476366;27;660004;-69
2021/11/28 04:25:17;;;;;;;166.83;27.97;;;1.90;99.90;;;;;;4452010;27;660941;-69
2021/11/28 04:28:06;;;;;;;242.77;29.40;;;1.90;99.90;;;;;;4463668;27;659861;-70
2021/11/28 04:30:53;;;;;;;141.60;27.77;;;1.90;99.90;;;;;;4471491;27;660945;-69
2021/11/28 04:33:41;;;;;;;126.53;27.33;;;1.90;99.90;;;;;;4446444;27;659794;-69
2021/11/28 04:36:30;;;;;;;96.40;27.57;;;1.90;99.90;;;;;;4475858;27;660291;-69
2021/11/28 04:39:18;;;;;;;103.23;26.73;;;1.90;99.90;;;;;;4450128;27;659010;-70
2021/11/28 04:42:06;;;;;;;87.13;25.87;;;1.90;99.90;;;;;;4450589;27;659737;-70
2021/11/28 04:44:53;;;;;;;121.97;25.37;;;2.00;99.90;;;;;;4462536;27;659701;-69
2021/11/28 04:47:41;;;;;;;91.27;25.73;;;1.90;99.90;;;;;;4444196;27;659537;-70
2021/11/28 04:50:28;;;;;;;83.25;25.52;;;1.90;99.90;;;;;;4476460;27;660273;-70
2021/11/28 04:53:17;;;;;;;70.27;23.77;;;1.90;99.90;;;;;;4455939;27;658909;-69
2021/11/28 04:56:06;;;;;;;66.67;23.70;;;1.90;99.90;;;;;;4468241;27;658599;-69
2021/11/28 04:58:54;;;;;;;63.78;22.77;;;1.90;99.90;;;;;;4472554;27;659857;-69
2021/11/28 05:01:41;;;;;;;57.03;21.53;;;1.90;99.90;;;;;;4442299;27;659161;-69
2021/11/28 05:04:29;;;;;;;55.10;21.67;;;1.80;99.90;;;;;;4475585;27;658692;-69
2021/11/28 05:07:17;;;;;;;60.37;21.80;;;1.80;99.90;;;;;;4451119;27;658999;-69
2021/11/28 05:10:07;;;;;;;71.40;20.87;;;1.70;99.90;;;;;;4475992;27;658894;-69
2021/11/28 05:12:54;;;;;;;52.50;20.30;;;1.70;99.90;;;;;;4445089;27;658530;-69
2021/11/28 05:15:42;;;;;;;57.23;19.73;;;1.60;99.90;;;;;;4441596;27;658649;-69
2021/11/28 05:18:29;;;;;;;52.47;20.37;;;1.60;99.90;;;;;;4470424;27;658172;-69
2021/11/28 05:21:17;;;;;;;56.80;19.57;;;1.60;99.90;;;;;;4452268;27;659929;-69
2021/11/28 05:24:05;;;;;;;46.50;19.20;;;1.50;99.90;;;;;;4476722;27;658305;-69
2021/11/28 05:26:54;;;;;;;55.07;22.97;;;1.50;99.90;;;;;;4451476;27;659633;-69
2021/11/28 05:29:42;;;;;;;54.87;22.30;;;1.50;99.90;;;;;;4446549;27;659614;-69
2021/11/28 05:32:32;;;;;;;65.27;23.30;;;1.40;99.90;;;;;;4474826;27;658419;-69
2021/11/28 05:35:20;;;;;;;57.63;23.00;;;1.40;99.90;;;;;;4452678;27;660127;-69
2021/11/28 05:38:08;;;;;;;105.83;19.63;;;1.30;99.90;;;;;;4450518;27;658924;-69
2021/11/28 05:40:55;;;;;;;196.13;20.10;;;1.30;99.90;;;;;;4455701;27;659823;-70
2021/11/28 05:43:46;;;;;;;77.27;19.97;;;1.20;99.90;;;;;;4467542;27;659744;-69
2021/11/28 05:46:34;;;;;;;56.30;20.53;;;1.20;99.90;;;;;;4453903;27;658889;-69
2021/11/28 05:49:22;;;;;;;59.23;23.20;;;1.10;99.90;;;;;;4450769;27;659007;-69
2021/11/28 05:52:09;;;;;;;50.83;21.17;;;1.10;99.90;;;;;;4476186;27;659312;-69
2021/11/28 05:54:57;;;;;;;56.00;21.90;;;1.10;99.90;;;;;;4438673;27;660005;-70
2021/11/28 05:57:45;;;;;;;49.90;19.30;;;1.00;99.90;;;;;;4466481;27;658988;-69
2021/11/28 06:00:34;;;;;;;45.50;19.30;;;1.00;99.90;;;;;;4451406;27;659476;-69
2021/11/28 06:03:21;;;;;;;48.03;19.90;;;0.90;99.90;;;;;;4454033;27;660299;-69
2021/11/28 06:06:09;;;;;;;53.63;20.13;;;0.90;99.90;;;;;;4468500;27;659356;-69
2021/11/28 06:08:57;;;;;;;69.50;22.50;;;0.90;99.90;;;;;;4450421;27;658849;-70
2021/11/28 06:11:44;;;;;;;53.57;20.93;;;0.80;99.90;;;;;;4463086;27;658520;-69
2021/11/28 06:14:32;;;;;;;51.90;18.93;;;0.80;99.90;;;;;;4443340;27;660133;-69
2021/11/28 06:17:22;;;;;;;56.90;18.40;;;0.80;99.90;;;;;;4467692;27;658127;-69
2021/11/28 06:20:11;;;;;;;46.70;18.30;;;0.70;99.90;;;;;;4450352;27;658473;-69
2021/11/28 06:23:02;;;;;;;66.13;17.60;;;0.70;99.90;;;;;;4442274;27;658534;-69
2021/11/28 06:25:49;;;;;;;36.07;16.33;;;0.60;99.90;;;;;;4438886;27;658538;-69
2021/11/28 06:28:37;;;;;;;47.47;18.07;;;0.60;99.90;;;;;;4444468;28;659670;-68
2021/11/28 06:31:25;;;;;;;46.10;18.63;;;0.60;99.90;;;;;;4466204;27;658677;-69
2021/11/28 06:34:14;;;;;;;45.80;19.07;;;0.60;99.90;;;;;;4450672;27;659303;-69
2021/11/28 06:37:02;;;;;;;50.37;20.00;;;0.60;99.90;;;;;;4442528;27;658634;-70
2021/11/28 06:39:49;;;;;;;54.03;20.63;;;0.70;99.90;;;;;;4461690;27;658538;-69
2021/11/28 06:42:37;;;;;;;54.30;20.67;;;0.60;99.90;;;;;;4444839;27;659212;-68
2021/11/28 06:45:25;;;;;;;52.33;19.53;;;0.60;99.90;;;;;;4469137;27;658328;-69
2021/11/28 06:48:13;;;;;;;49.40;19.07;;;0.70;99.90;;;;;;4443531;27;659547;-69
2021/11/28 06:51:02;;;;;;;54.17;23.17;;;0.70;99.90;;;;;;4454556;27;658776;-69
2021/11/28 06:53:50;;;;;;;67.20;27.63;;;0.80;99.90;;;;;;4462521;27;658736;-69
2021/11/28 06:56:37;;;;;;;74.03;28.80;;;0.80;99.90;;;;;;4447363;27;658459;-69
2021/11/28 06:59:26;;;;;;;106.97;29.43;;;0.90;99.90;;;;;;4466386;27;659273;-70
2021/11/28 07:02:14;;;;;;;95.87;29.67;;;0.90;99.90;;;;;;4453297;28;659760;-69
2021/11/28 07:05:02;;;;;;;100.57;28.85;;;1.00;99.90;;;;;;4430638;28;658866;-69
2021/11/28 07:07:51;;;;;;;81.78;27.63;;;1.10;99.90;;;;;;4451283;28;659516;-69
2021/11/28 07:10:39;;;;;;;78.17;28.23;;;1.10;99.90;;;;;;4430141;28;658609;-68
2021/11/28 07:13:27;;;;;;;74.10;27.23;;;1.10;99.90;;;;;;4440505;28;658931;-69
2021/11/28 07:16:14;;;;;;;87.95;28.90;;;1.10;99.90;;;;;;4454349;28;659436;-70
2021/11/28 07:19:02;;;;;;;139.70;30.40;;;1.20;99.90;;;;;;4450167;27;659852;-69
2021/11/28 07:21:50;;;;;;;91.67;29.13;;;1.20;99.90;;;;;;4465317;28;659884;-69
2021/11/28 07:24:39;;;;;;;88.63;29.23;;;1.20;99.90;;;;;;4443314;28;659244;-69
2021/11/28 07:27:27;;;;;;;92.00;28.50;;;1.30;99.90;;;;;;4457087;28;659531;-69
2021/11/28 07:30:15;;;;;;;91.60;28.57;;;1.40;99.90;;;;;;4470465;28;659213;-70
2021/11/28 07:33:03;;;;;;;79.43;28.27;;;1.40;99.90;;;;;;4446277;28;659249;-69
2021/11/28 07:35:51;;;;;;;91.33;30.07;;;1.40;99.90;;;;;;4455987;28;658455;-70
2021/11/28 07:38:39;;;;;;;85.27;29.17;;;1.50;99.90;;;;;;4471043;28;659572;-69
2021/11/28 07:41:28;;;;;;;80.83;27.73;;;1.50;99.90;;;;;;4448827;28;659773;-69
2021/11/28 07:44:16;;;;;;;76.47;25.50;;;1.50;99.90;;;;;;4456199;28;658653;-69
2021/11/28 07:47:05;;;;;;;76.00;26.95;;;1.50;99.90;;;;;;4469736;28;660255;-69
2021/11/28 07:49:53;;;;;;;76.88;26.95;;;1.50;99.90;;;;;;4438044;28;658978;-69
2021/11/28 07:52:41;;;;;;;74.67;27.47;;;1.60;99.90;;;;;;4465508;28;658776;-70
2021/11/28 07:55:28;;;;;;;73.93;28.42;;;1.60;99.90;;;;;;4471047;28;659353;-69
2021/11/28 07:58:18;;;;;;;72.37;29.37;;;1.70;99.90;;;;;;4457535;28;658293;-69
2021/11/28 08:01:06;;;;;;;78.25;31.02;;;1.70;99.90;;;;;;4457002;28;658995;-70
2021/11/28 08:03:53;;;;;;;95.87;35.30;;;1.80;99.90;;;;;;4470301;28;659312;-69
2021/11/28 08:06:41;;;;;;;142.87;48.60;;;1.90;99.90;;;;;;4444490;28;658798;-69
2021/11/28 08:09:29;;;;;;;101.17;42.37;;;2.00;99.90;;;;;;4464406;28;659704;-69
2021/11/28 08:12:17;;;;;;;90.77;37.43;;;2.00;99.90;;;;;;4449796;28;659619;-69
2021/11/28 08:15:08;;;;;;;75.10;32.40;;;2.10;99.90;;;;;;4465775;28;659461;-69
2021/11/28 08:17:56;;;;;;;75.60;30.57;;;2.20;99.90;;;;;;4428780;27;658484;-70
2021/11/28 08:20:43;;;;;;;72.07;30.97;;;2.40;99.90;;;;;;4481734;27;659757;-68
2021/11/28 08:23:31;;;;;;;64.80;29.17;;;2.50;99.90;;;;;;4454522;27;658798;-70
2021/11/28 08:26:19;;;;;;;61.50;27.07;;;2.60;99.90;;;;;;4474436;27;658827;-69
2021/11/28 08:29:07;;;;;;;58.45;25.00;;;2.70;99.90;;;;;;4449447;27;659195;-69
2021/11/28 08:31:56;;;;;;;63.10;25.53;;;2.70;99.90;;;;;;4465045;27;658781;-69
2021/11/28 08:34:44;;;;;;;65.25;26.98;;;2.80;99.90;;;;;;4455084;27;659890;-69
2021/11/28 08:37:32;;;;;;;68.07;27.35;;;2.90;99.90;;;;;;4460025;27;658592;-69
2021/11/28 08:40:21;;;;;;;70.07;30.90;;;2.90;99.90;;;;;;4474174;27;658736;-69
2021/11/28 08:43:10;;;;;;;71.23;31.37;;;3.00;99.90;;;;;;4426689;27;658473;-70
2021/11/28 08:45:57;;;;;;;68.10;30.23;;;3.00;99.90;;;;;;4439456;27;660320;-70
2021/11/28 08:48:47;;;;;;;66.73;30.77;;;3.00;99.90;;;;;;4468436;27;658624;-70
2021/11/28 08:51:35;;;;;;;61.90;28.53;;;3.10;99.90;;;;;;4450115;27;658473;-70
2021/11/28 08:54:23;;;;;;;59.90;27.83;;;3.10;99.90;;;;;;4448906;27;660785;-70
2021/11/28 08:57:11;;;;;;;61.57;28.20;;;3.10;99.90;;;;;;4449356;27;658624;-70
2021/11/28 08:59:58;;;;;;;60.43;25.97;;;3.20;99.90;;;;;;4465161;27;659208;-70
2021/11/28 09:02:49;;;;;;;56.40;27.43;;;3.30;99.90;;;;;;4453771;27;658737;-70
2021/11/28 09:05:38;;;;;;;57.72;26.02;;;3.30;99.90;;;;;;4448919;27;658574;-70
2021/11/28 09:08:26;;;;;;;56.13;25.73;;;3.40;99.90;;;;;;4448311;27;658525;-71
2021/11/28 09:11:15;;;;;;;62.27;27.57;;;3.40;99.90;;;;;;4477308;27;659331;-70
2021/11/28 09:14:03;;;;;;;62.57;26.73;;;3.40;99.90;;;;;;4447854;27;658874;-70
2021/11/28 09:16:51;;;;;;;64.63;27.20;;;3.50;99.90;;;;;;4449185;27;660197;-69
2021/11/28 09:19:46;;;;;;;54.03;26.60;;;3.60;99.90;;;;;;4469948;27;658914;-69
2021/11/28 09:25:37;;;;;;;64.27;27.97;;;3.80;99.90;;;;;;4424444;27;659657;-71
2021/11/28 09:28:25;;;;;;;64.70;28.03;;;3.90;99.90;;;;;;4471412;27;658437;-70
2021/11/28 09:31:12;;;;;;;63.20;27.13;;;4.00;99.90;;;;;;4450718;27;659090;-70
2021/11/28 09:34:01;;;;;;;56.43;25.63;;;4.10;99.90;;;;;;4459501;27;658835;-71
2021/11/28 09:36:49;;;;;;;54.60;24.80;;;4.00;99.90;;;;;;4470550;27;659122;-70
2021/11/28 09:39:39;;;;;;;54.23;25.60;;;4.00;99.90;;;;;;4445543;27;660224;-70
2021/11/28 09:42:30;;;;;;;58.77;26.60;;;4.00;99.90;;;;;;4450512;27;658734;-69
2021/11/28 09:45:18;;;;;;;57.37;26.03;;;4.00;99.90;;;;;;4446050;27;660122;-69
2021/11/28 09:48:06;;;;;;;70.03;30.65;;;3.90;99.90;;;;;;4454795;27;658803;-70
2021/11/28 09:50:54;;;;;;;68.17;29.77;;;3.90;99.90;;;;;;4469301;27;659412;-70
2021/11/28 09:53:41;;;;;;;66.20;29.03;;;3.90;99.90;;;;;;4450616;27;658385;-70
2021/11/28 09:56:39;;;;;;;63.47;29.50;;;3.90;99.90;;;;;;4470774;27;658966;-70
2021/11/28 09:59:26;;;;;;;65.77;30.23;;;4.00;99.90;;;;;;4426967;27;658775;-69
2021/11/28 10:02:17;;;;;;;62.60;29.23;;;4.20;99.90;;;;;;4466244;27;658964;-70
2021/11/28 10:05:06;;;;;;;70.63;29.93;;;4.30;99.90;;;;;;4446426;27;658791;-70
2021/11/28 10:07:53;;;;;;;75.23;32.50;;;4.40;99.90;;;;;;4443030;27;659111;-69
2021/11/28 10:10:44;;;;;;;65.33;28.67;;;4.50;99.90;;;;;;4443523;27;658685;-68
2021/11/28 10:13:34;;;;;;;65.40;29.37;;;4.60;99.90;;;;;;4451183;27;659993;-68
2021/11/28 10:16:22;;;;;;;67.30;30.40;;;4.70;99.90;;;;;;4456359;27;658525;-70
2021/11/28 10:19:10;;;;;;;62.67;28.70;;;4.70;99.90;;;;;;4460521;27;658663;-69
2021/11/28 10:21:57;;;;;;;67.33;29.27;;;4.70;99.90;;;;;;4434165;28;660556;-69
2021/11/28 10:24:52;;;;;;;65.97;28.10;;;4.80;99.90;;;;;;4460507;28;658908;-69
2021/11/28 10:27:42;;;;;;;66.07;30.13;;;5.00;99.90;;;;;;4430850;28;659047;-70
2021/11/28 10:30:36;;;;;;;68.37;30.80;;;5.10;99.90;;;;;;4458401;28;659057;-68
2021/11/28 10:33:24;;;;;;;65.00;29.80;;;5.10;99.90;;;;;;4442958;27;659325;-69
2021/11/28 10:36:11;;;;;;;62.53;27.75;;;5.20;99.90;;;;;;4437423;28;659448;-70
2021/11/28 10:38:59;;;;;;;59.27;25.53;;;5.30;99.90;;;;;;4464461;27;659236;-69
2021/11/28 10:41:49;;;;;;;65.13;27.20;;;5.20;99.90;;;;;;4444114;27;659763;-69
2021/11/28 10:44:37;;;;;;;63.33;27.57;;;5.20;99.90;;;;;;4445825;27;659120;-69
2021/11/28 10:47:33;;;;;;;58.50;25.70;;;5.30;99.90;;;;;;4462698;27;658426;-70
2021/11/28 10:50:22;;;;;;;60.08;25.30;;;5.30;99.90;;;;;;4443364;27;658955;-70
2021/11/28 10:53:11;;;;;;;59.57;27.63;;;5.30;99.90;;;;;;4459440;27;658691;-69
2021/11/28 10:56:01;;;;;;;71.90;31.03;;;5.40;99.90;;;;;;4434868;28;659671;-70
2021/11/28 10:58:49;;;;;;;72.00;29.87;;;5.30;99.90;;;;;;4440098;28;659364;-69
2021/11/28 11:01:39;;;;;;;57.67;26.57;;;5.30;99.90;;;;;;4440984;28;658875;-70
2021/11/28 11:04:29;;;;;;;53.67;26.10;;;5.30;99.90;;;;;;4443115;27;659034;-70
2021/11/28 11:07:21;;;;;;;57.00;27.13;;;5.30;99.90;;;;;;4437019;28;658782;-70
2021/11/28 11:10:16;;;;;;;58.40;25.77;;;5.20;99.90;;;;;;4439255;28;659912;-69
2021/11/28 11:13:05;;;;;;;52.70;24.97;;;5.20;99.90;;;;;;4441660;27;659341;-70
2021/11/28 11:15:53;;;;;;;65.07;29.63;;;5.10;99.90;;;;;;4443683;28;659204;-70
2021/11/28 11:18:41;;;;;;;66.20;28.50;;;5.00;99.90;;;;;;4445532;27;659072;-71
2021/11/28 11:21:31;;;;;;;57.23;27.93;;;5.00;99.90;;;;;;4463164;28;659137;-70
2021/11/28 11:24:24;;;;;;;56.00;28.50;;;5.00;99.90;;;;;;4434110;28;658637;-70
2021/11/28 11:27:13;;;;;;;56.17;27.48;;;4.90;99.90;;;;;;4414116;28;659255;-71
2021/11/28 11:30:02;;;;;;;55.97;27.47;;;4.90;99.90;;;;;;4454126;28;658712;-71
2021/11/28 11:32:50;;;;;;;59.33;28.67;;;4.80;99.90;;;;;;4466081;28;658821;-70
2021/11/28 11:35:42;;;;;;;56.83;27.50;;;4.80;99.90;;;;;;4435629;28;658873;-69
2021/11/28 11:38:32;;;;;;;62.83;29.70;;;4.70;99.90;;;;;;4438977;28;658608;-70
2021/11/28 11:41:20;;;;;;;61.47;29.27;;;4.50;99.90;;;;;;4461798;28;659388;-69
2021/11/28 11:44:08;;;;;;;63.30;29.53;;;4.40;99.90;;;;;;4443933;28;659779;-69
2021/11/28 11:46:56;;;;;;;60.37;30.00;;;4.40;99.90;;;;;;4441542;28;658995;-70
2021/11/28 11:49:44;;;;;;;67.40;32.13;;;4.40;99.90;;;;;;4462394;28;659647;-70
2021/11/28 11:52:32;;;;;;;77.27;34.13;;;4.40;99.90;;;;;;4444407;28;659184;-69
2021/11/28 11:55:22;;;;;;;79.10;35.77;;;4.30;99.90;;;;;;4469359;27;659492;-70
2021/11/28 11:58:22;;;;;;;83.13;39.33;;;4.30;99.90;;;;;;4444534;27;658251;-69
2021/11/28 12:01:14;;;;;;;94.03;41.47;;;4.30;99.90;;;;;;4437580;27;659102;-69
2021/11/28 12:04:02;;;;;;;68.40;28.80;;;4.20;99.90;;;;;;4414755;27;659317;-70
2021/11/28 12:06:53;;;;;;;71.87;32.83;;;4.20;99.90;;;;;;4461858;27;658624;-70
2021/11/28 12:09:41;;;;;;;81.70;35.27;;;4.20;99.90;;;;;;4447299;27;658653;-70
2021/11/28 12:12:43;;;;;;;69.23;32.80;;;4.10;99.90;;;;;;4460846;27;659062;-70
2021/11/28 12:15:31;;;;;;;70.60;33.03;;;4.10;99.90;;;;;;4441563;27;658540;-71
2021/11/28 12:18:38;;;;;;;68.53;31.33;;;4.10;99.90;;;;;;4466398;27;659213;-70
2021/11/28 12:21:38;;;;;;;70.27;32.30;;;4.00;99.90;;;;;;4419934;28;659404;-71
2021/11/28 12:24:28;;;;;;;65.20;31.87;;;4.00;99.90;;;;;;4416097;28;658583;-71
2021/11/28 12:27:18;;;;;;;76.20;34.30;;;4.00;99.90;;;;;;4443409;28;659033;-71
2021/11/28 12:30:20;;;;;;;70.07;32.47;;;4.00;99.90;;;;;;4441027;28;658673;-71
2021/11/28 12:33:08;;;;;;;66.63;30.67;;;3.90;99.90;;;;;;4445161;28;659186;-70
2021/11/28 12:35:56;;;;;;;62.65;29.00;;;3.80;99.90;;;;;;4446411;28;659087;-71
2021/11/28 12:38:50;;;;;;;66.33;30.53;;;3.90;99.90;;;;;;4468727;28;659050;-70
2021/11/28 12:42:00;;;;;;;67.70;32.17;;;3.80;99.90;;;;;;4412229;28;659316;-69
2021/11/28 12:45:02;;;;;;;69.17;31.73;;;3.80;99.90;;;;;;4411221;28;659503;-70
2021/11/28 12:48:06;;;;;;;62.97;27.50;;;3.80;99.90;;;;;;4435982;28;659031;-70
2021/11/28 12:51:04;;;;;;;66.55;31.15;;;3.80;99.90;;;;;;4438403;27;659330;-70
2021/11/28 12:53:52;;;;;;;86.33;35.77;;;3.80;99.90;;;;;;4418289;27;658863;-70
2021/11/28 12:56:39;;;;;;;76.03;33.67;;;3.80;99.90;;;;;;4469810;27;659184;-69
2021/11/28 12:59:27;;;;;;;62.30;29.40;;;3.80;99.90;;;;;;4444807;28;660095;-70
2021/11/28 13:02:15;;;;;;;56.03;27.80;;;3.80;99.90;;;;;;4462933;28;658753;-70
2021/11/28 13:05:06;;;;;;;57.87;28.07;;;3.80;99.90;;;;;;4444793;27;660198;-70
2021/11/28 13:07:54;;;;;;;66.18;30.80;;;3.80;99.90;;;;;;4441097;27;660571;-71
2021/11/28 13:10:42;;;;;;;60.23;27.13;;;3.80;99.90;;;;;;4444691;28;658278;-70
2021/11/28 13:13:32;;;;;;;62.57;29.17;;;3.80;99.90;;;;;;4464532;27;658193;-70
2021/11/28 13:16:23;;;;;;;61.60;28.87;;;3.90;99.90;;;;;;4443557;27;658816;-70
2021/11/28 13:19:11;;;;;;;53.33;26.23;;;3.90;99.90;;;;;;4442403;27;659558;-71
2021/11/28 13:22:00;;;;;;;54.77;27.77;;;3.90;99.90;;;;;;4472285;27;659666;-69
2021/11/28 13:24:48;;;;;;;51.37;25.73;;;3.90;99.90;;;;;;4442379;27;659354;-70
2021/11/28 13:27:36;;;;;;;53.53;26.53;;;3.90;99.90;;;;;;4454818;28;658710;-70
2021/11/28 13:30:33;;;;;;;46.43;25.23;;;3.90;99.90;;;;;;4473153;27;659487;-70
2021/11/28 13:33:22;;;;;;;53.73;26.47;;;3.90;99.90;;;;;;4432218;27;659038;-71
2021/11/28 13:36:10;;;;;;;64.67;30.50;;;3.90;99.90;;;;;;4461976;27;658294;-70
2021/11/28 13:38:59;;;;;;;70.53;33.60;;;3.90;99.90;;;;;;4446992;27;659203;-70
2021/11/28 13:41:50;;;;;;;66.50;31.37;;;3.90;99.90;;;;;;4446196;27;658515;-70
2021/11/28 13:44:37;;;;;;;72.00;33.63;;;3.90;99.90;;;;;;4452123;27;660296;-69
2021/11/28 13:47:26;;;;;;;71.27;33.57;;;4.00;99.90;;;;;;4463553;27;658473;-70
2021/11/28 13:50:17;;;;;;;84.77;37.10;;;4.00;99.90;;;;;;4444784;27;658686;-70
2021/11/28 13:53:13;;;;;;;95.47;38.10;;;4.00;99.90;;;;;;4439823;27;658554;-70
2021/11/28 13:56:03;;;;;;;76.13;33.33;;;4.00;99.90;;;;;;4411967;28;658880;-70
2021/11/28 13:59:05;;;;;;;60.53;28.63;;;4.00;99.90;;;;;;4433108;28;658845;-70
2021/11/28 14:02:05;;;;;;;62.20;28.03;;;4.00;99.90;;;;;;4410969;28;658911;-69
2021/11/28 14:04:54;;;;;;;52.80;24.87;;;4.00;99.90;;;;;;4411504;28;659711;-69
2021/11/28 14:07:43;;;;;;;42.35;21.05;;;4.00;99.90;;;;;;4437701;28;658756;-71
2021/11/28 14:10:31;;;;;;;43.43;20.50;;;4.10;99.90;;;;;;4441394;28;659368;-70
2021/11/28 14:13:20;;;;;;;42.87;20.80;;;4.10;99.90;;;;;;4456029;28;659645;-69
2021/11/28 14:16:08;;;;;;;35.57;17.77;;;4.10;99.90;;;;;;4430514;28;658958;-70
2021/11/28 14:18:56;;;;;;;37.73;19.17;;;4.10;99.90;;;;;;4431864;28;658675;-70